Latest Coastal Weather Observations for Ballina

IDN60701

Issued at 5:41 am EDT Friday 24 November 2017 (issued every 10 minutes, with the page automatically refreshed every 10 minutes)

About coastal observations | Map of coastal stations | Coastal observations for NSW | Marine services | Other Formats
Station Details ID: 058198 Name: BALLINA AIRPORT AWS Lat: -28.84 Lon: 153.56 Height: 1.3 m
Data from the previous 72 hours. | See also: Recent months at Ballina
Date/Time
EDT
Temp
°C
Wind Pressure Rain since
9am
mm
Weather Cloud Vis
km
Sea
Height
m
Swell
Dir  Spd
kts
Gust
kts
hPa Trend Height
m
Period
s
Dir
24/05:30am 15.7 CALM 0 4 1016.3 - 0.2 - Partly cloudy 10 - - - -
24/05:00am 15.1 CALM 0 0 1016.1 - 0.2 - Partly cloudy 10 - - - -
24/04:30am 15.0 CALM 0 0 1015.9 - 0.2 - - 10 - - - -
24/04:25am 14.9 CALM 0 0 1015.8 - 0.2 - - 10 - - - -
24/04:07am 15.2 CALM 0 0 1015.8 - 0.2 - - 5 - - - -
24/04:00am 15.4 CALM 0 0 1015.8 - 0.2 - - 10 - - - -
24/03:30am 16.0 CALM 0 0 1015.8 - 0.2 - Partly cloudy 10 - - - -
24/03:00am 15.7 CALM 0 0 1015.8 - 0.2 - Partly cloudy 10 - - - -
24/02:30am 15.8 CALM 0 0 1016.1 - 0.2 - Partly cloudy 10 - - - -
24/02:00am 16.0 CALM 0 0 1016.3 - 0.2 - - 10 - - - -
24/01:30am 16.0 CALM 0 0 1016.5 - 0.2 - Partly cloudy 10 - - - -
24/01:00am 16.3 CALM 0 0 1016.8 - 0.2 - Partly cloudy 10 - - - -
24/12:30am 16.7 CALM 0 0 1017.1 - 0.2 - - 8 - - - -
24/12:00am 17.0 CALM 0 0 1017.2 - 0.2 - Partly cloudy 10 - - - -
 
Date/Time
EDT
Temp
°C
Wind Pressure Rain since
9am
mm
Weather Cloud Vis
km
Sea
Height
m
Swell
Dir  Spd
kts
Gust
kts
hPa Trend Height
m
Period
s
Dir
23/11:30pm 17.3 CALM 0 0 1017.3 - 0.2 - Partly cloudy 10 - - - -
23/11:00pm 17.2 CALM 0 0 1017.4 - 0.2 - Partly cloudy 10 - - - -
23/10:30pm 17.3 CALM 0 0 1017.5 - 0.2 - Partly cloudy 10 - - - -
23/10:00pm 17.6 CALM 0 0 1017.4 - 0.2 - Partly cloudy 10 - - - -
23/09:30pm 17.6 CALM 0 0 1017.2 - 0.2 - Partly cloudy 10 - - - -
23/09:00pm 18.5 CALM 0 0 1016.8 - 0.2 - - 10 - - - -
23/08:30pm 19.3 NE 1 3 1016.4 - 0.2 - - 10 - - - -
23/08:00pm 19.2 ENE 3 4 1016.3 - 0.2 - - 10 - - - -
23/07:30pm 19.7 ENE 5 6 1016.1 - 0.2 - - 10 - - - -
23/07:00pm 21.5 E 6 9 1016.0 - 0.2 - - 10 - - - -
23/06:30pm 22.2 E 8 11 1015.6 - 0.2 - - 10 - - - -
23/06:00pm 22.9 ENE 9 13 1015.3 - 0.2 - - 10 - - - -
23/05:30pm 23.1 ENE 10 14 1015.3 - 0.2 - - 10 - - - -
23/05:00pm 23.2 E 10 13 1015.4 - 0.2 - - 10 - - - -
23/04:30pm 22.9 ESE 9 13 1015.5 - 0.2 - - 10 - - - -
23/04:00pm 24.1 ESE 7 11 1015.5 - 0.2 - Partly cloudy 10 - - - -
23/03:30pm 22.7 SSE 7 10 1015.6 - 0.2 - - 10 - - - -
23/03:00pm 22.7 SSE 8 11 1016.0 - 0.2 - Partly cloudy 10 - - - -
23/02:30pm 23.4 SSE 7 11 1015.9 - 0.2 - Partly cloudy 10 - - - -
23/02:00pm 22.1 SSE 7 11 1016.2 - 0.2 - Cloudy 10 - - - -
23/01:30pm 21.8 SSW 11 14 1016.6 - 0.2 - Partly cloudy 10 - - - -
23/01:00pm 22.1 SSW 9 12 1017.0 - 0.2 - Partly cloudy 10 - - - -
23/12:30pm 23.1 SSE 7 11 1017.1 - 0.2 - Partly cloudy 10 - - - -
23/12:00pm 21.9 SSE 7 11 1017.2 - 0.2 Recent precip. Mostly cloudy 10 - - - -
23/11:30am 21.8 S 8 10 1017.4 - 0.0 - Partly cloudy 10 - - - -
23/11:00am 23.3 SSE 9 13 1017.4 - 0.0 - Partly cloudy 10 - - - -
23/10:30am 24.3 SE 7 11 1017.4 - 0.0 - Partly cloudy 10 - - - -
23/10:00am 23.0 SE 6 11 1017.4 - 0.0 - Partly cloudy 10 - - - -
23/09:30am 23.5 SSE 7 11 1017.3 - 0.0 - Partly cloudy 10 - - - -
23/09:00am 21.9 SW 5 8 1017.4 - 0.8 - Partly cloudy 10 - - - -
23/08:30am 21.9 SSW 5 7 1017.3 - 0.8 - - 10 - - - -
23/08:00am 20.4 SW 5 7 1017.0 - 0.8 - Partly cloudy 10 - - - -
23/07:30am 18.7 WSW 5 7 1016.9 - 0.8 - Partly cloudy 10 - - - -
23/07:00am 17.2 WSW 5 7 1016.6 - 0.8 - Partly cloudy 10 - - - -
23/06:30am 15.0 CALM 0 0 1016.3 - 0.8 - Partly cloudy 10 - - - -
23/06:00am 14.1 CALM 0 0 1016.1 - 0.8 - Mostly cloudy 10 - - - -
23/05:30am 14.4 CALM 0 0 1015.9 - 0.8 - Partly cloudy 10 - - - -
23/05:00am 14.5 CALM 0 0 1015.7 - 0.8 - - 10 - - - -
23/04:47am 14.6 CALM 0 3 1015.6 - 0.8 - - 10 - - - -
23/04:30am 14.3 WSW 1 4 1015.5 - 0.8 - - 3 - - - -
23/04:27am 14.4 CALM 0 4 1015.5 - 0.8 - - 5 - - - -
23/04:00am 15.0 CALM 0 0 1015.6 - 0.8 - - 10 - - - -
23/03:30am 15.2 W 3 4 1015.6 - 0.8 - Partly cloudy 10 - - - -
23/03:00am 15.0 W 4 5 1015.7 - 0.8 - Mostly cloudy 10 - - - -
23/02:30am 15.3 WSW 4 6 1015.8 - 0.8 - Partly cloudy 10 - - - -
23/02:00am 15.7 WSW 1 4 1015.9 - 0.8 - Partly cloudy 10 - - - -
23/01:30am 15.7 W 5 5 1016.2 - 0.8 - Partly cloudy 10 - - - -
23/01:00am 15.7 WSW 4 5 1016.5 - 0.8 - - 10 - - - -
23/12:30am 16.0 W 4 5 1016.8 - 0.8 - - 10 - - - -
23/12:00am 16.4 WNW 1 3 1017.1 - 0.8 - Partly cloudy 10 - - - -
 
Date/Time
EDT
Temp
°C
Wind Pressure Rain since
9am
mm
Weather Cloud Vis
km
Sea
Height
m
Swell
Dir  Spd
kts
Gust
kts
hPa Trend Height
m
Period
s
Dir
22/11:30pm 17.2 CALM 0 0 1017.4 - 0.8 - Partly cloudy 10 - - - -
22/11:00pm 17.1 CALM 0 0 1017.5 - 0.8 - Partly cloudy 10 - - - -
22/10:30pm 17.4 CALM 0 0 1017.5 - 0.8 - Partly cloudy 10 - - - -
22/10:00pm 17.6 CALM 0 0 1017.6 - 0.8 - Partly cloudy 10 - - - -
22/09:30pm 17.8 CALM 0 0 1017.5 - 0.8 - Partly cloudy 10 - - - -
22/09:00pm 17.8 CALM 0 0 1017.3 - 0.8 - Partly cloudy 10 - - - -
22/08:30pm 18.5 CALM 0 0 1017.0 - 0.8 - - 10 - - - -
22/08:00pm 18.9 E 3 5 1016.8 - 0.8 - - 10 - - - -
22/07:30pm 19.8 E 4 5 1016.7 - 0.8 - - 10 - - - -
22/07:00pm 20.5 E 5 7 1016.5 - 0.8 - - 10 - - - -
22/06:30pm 21.5 E 7 10 1016.4 - 0.8 - Partly cloudy 10 - - - -
22/06:00pm 22.7 ESE 8 12 1016.1 - 0.8 - Partly cloudy 10 - - - -
22/05:30pm 22.8 ESE 10 14 1015.9 - 0.8 - - 10 - - - -
22/05:00pm 23.0 E 9 14 1015.9 - 0.8 - - 10 - - - -
22/04:30pm 23.5 E 8 11 1016.0 - 0.8 - - 10 - - - -
22/04:00pm 22.9 ESE 9 14 1016.2 - 0.8 - - 10 - - - -
22/03:30pm 23.6 ESE 10 13 1016.3 - 0.8 - - 10 - - - -
22/03:00pm 22.9 ESE 10 17 1016.5 - 0.8 - Partly cloudy 10 - - - -
22/02:30pm 23.6 ESE 9 14 1016.6 - 0.8 - Partly cloudy 10 - - - -
22/02:00pm 23.6 ESE 9 15 1016.9 - 0.8 - Partly cloudy 10 - - - -
22/01:30pm 23.6 ESE 9 15 1017.2 - 0.8 - Partly cloudy 10 - - - -
22/01:00pm 23.5 ESE 9 13 1017.4 - 0.8 - Partly cloudy 10 - - - -
22/12:30pm 23.7 SE 8 13 1017.6 - 0.8 - Partly cloudy 10 - - - -
22/12:00pm 22.8 SSE 10 13 1017.8 - 0.8 - Mostly clear 10 - - - -
22/11:30am 23.1 SSE 8 12 1018.0 - 0.8 - - 10 - - - -
22/11:00am 23.2 SE 8 11 1018.2 - 0.8 - - 10 - - - -
22/10:30am 20.7 SW 5 8 1018.4 - 0.8 - Partly cloudy 10 - - - -
22/10:00am 19.4 SW 3 5 1018.6 - 0.8 - Partly cloudy 10 - - - -
22/09:55am 18.8 S 3 7 1018.7 - 0.8 - Partly cloudy 10 - - - -
22/09:40am 18.8 SSE 8 11 1018.7 - 0.6 - Partly cloudy 5 - - - -
22/09:30am 20.0 SSW 5 7 1018.6 - 0.0 - Partly cloudy 10 - - - -
22/09:00am 20.1 WSW 6 9 1018.5 - 8.6 - Mostly clear 10 - - - -
22/08:30am 19.5 WSW 8 11 1018.6 - 8.6 - - 10 - - - -
22/08:00am 19.5 WSW 7 9 1018.4 - 8.6 - Partly cloudy 10 - - - -
22/07:30am 18.9 W 6 8 1018.2 - 8.6 - Partly cloudy 10 - - - -
22/07:00am 18.2 WNW 7 8 1017.9 - 8.6 - Partly cloudy 10 - - - -
22/06:30am 16.9 WNW 5 6 1017.9 - 8.6 - Partly cloudy 10 - - - -
22/06:00am 16.8 NNW 4 7 1017.9 - 8.6 - Cloudy 10 - - - -
22/05:30am 17.4 WSW 7 10 1017.6 - 8.6 - Partly cloudy 10 - - - -
22/05:00am 18.1 NW 4 6 1017.1 - 8.6 - Cloudy 10 - - - -
22/04:30am 17.6 ENE 8 12 1017.3 - 8.6 - Partly cloudy 10 - - - -
22/04:00am 17.7 ENE 14 18 1017.2 - 8.6 - Cloudy 10 - - - -
22/03:30am 18.3 E 12 16 1017.3 - 8.6 - Partly cloudy 10 - - - -
22/03:00am 18.3 ESE 14 20 1017.4 - 8.6 - Cloudy 10 - - - -
22/02:30am 18.9 ESE 9 17 1017.4 - 8.6 - Partly cloudy 10 - - - -
22/02:00am 18.7 SE 6 9 1017.6 - 8.6 - - 10 - - - -
22/01:30am 18.0 E 5 10 1017.9 - 8.6 - Partly cloudy 10 - - - -
22/01:00am 17.7 NW 3 9 1018.2 - 8.4 - Partly cloudy 9 - - - -
22/12:30am 16.5 WSW 6 7 1018.5 - 8.2 - Partly cloudy 10 - - - -
22/12:00am 18.8 S 5 7 1018.9 - 8.2 - Mostly clear 10 - - - -
 
Date/Time
EDT
Temp
°C
Wind Pressure Rain since
9am
mm
Weather Cloud Vis
km
Sea
Height
m
Swell
Dir  Spd
kts
Gust
kts
hPa Trend Height
m
Period
s
Dir
21/11:30pm 19.1 SSE 7 10 1019.1 - 8.2 - Partly cloudy 10 - - - -
21/11:00pm 19.2 SSE 8 12 1019.3 - 8.2 - - 10 - - - -
21/10:30pm 19.4 SSE 7 11 1019.6 - 8.2 - Partly cloudy 10 - - - -
21/10:00pm 19.6 SSE 9 14 1019.7 - 8.2 - Partly cloudy 10 - - - -
21/09:30pm 19.2 SSE 8 10 1019.8 - 8.2 - - 10 - - - -
21/09:00pm 19.1 SSE 6 10 1019.8 - 8.2 - Mostly clear 10 - - - -
21/08:30pm 19.8 SSE 8 11 1019.7 - 8.2 - Partly cloudy 10 - - - -
21/08:00pm 19.2 SSE 6 8 1019.5 - 8.2 - - 10 - - - -
21/07:30pm 20.0 SE 7 11 1019.5 - 8.2 - Partly cloudy 10 - - - -
21/07:00pm 20.7 SE 10 13 1019.2 - 8.2 - Partly cloudy 10 - - - -
21/06:30pm 21.5 SSE 10 14 1018.9 - 8.2 - - 10 - - - -
21/06:00pm 21.9 SE 12 15 1018.8 - 8.2 - Partly cloudy 10 - - - -
21/05:30pm 21.9 SSE 12 16 1018.8 - 8.2 - Partly cloudy 10 - - - -
21/05:00pm 22.2 SSE 12 17 1018.8 - 8.2 - Partly cloudy 10 - - - -
21/04:30pm 22.1 SSE 12 16 1019.0 - 8.2 - Partly cloudy 10 - - - -
21/04:00pm 22.9 SSE 14 19 1019.0 - 8.2 - Partly cloudy 10 - - - -
21/03:30pm 23.3 SSE 14 19 1019.1 - 8.2 - - 10 - - - -
21/03:00pm 23.6 SSE 15 19 1019.3 - 8.2 - Mostly clear 10 - - - -
21/02:30pm 23.4 SSE 15 20 1019.5 - 8.2 - Partly cloudy 10 - - - -
21/02:00pm 23.1 SE 15 20 1019.8 - 8.2 - Partly cloudy 10 - - - -
21/01:30pm 23.3 SE 14 19 1020.0 - 8.2 - Partly cloudy 10 - - - -
21/01:00pm 22.8 SE 13 17 1020.1 - 8.2 - Partly cloudy 10 - - - -
21/12:30pm 21.9 SE 12 17 1020.4 - 8.2 - Partly cloudy 10 - - - -
21/12:00pm 18.7 WNW 4 5 1020.6 - 8.2 Recent precip. Cloudy 10 - - - -
21/11:50am 18.7 NW 4 5 1020.7 - 8.2 - Partly cloudy 10 - - - -
21/11:30am 18.0 SSE 2 5 1020.8 - 7.6 - Partly cloudy 2 - - - -
21/11:12am 18.4 S 8 11 1021.0 - 4.6 - Partly cloudy 5 - - - -
21/11:00am 18.5 S 9 12 1021.0 - 4.6 - Partly cloudy 9 - - - -
21/10:54am 18.2 S 8 12 1021.1 - 4.6 - Partly cloudy 7 - - - -
21/10:30am 17.5 SE 10 15 1021.3 - 2.8 - Partly cloudy 3 - - - -
21/10:10am 18.3 ESE 16 24 1021.2 - 0.2 - Partly cloudy 5 - - - -
21/10:00am 19.6 SE 14 23 1021.0 - 0.0 - Partly cloudy 10 - - - -
21/09:30am 21.1 SE 11 15 1020.6 - 0.0 - Cloudy 10 - - - -
21/09:00am 21.1 SE 13 19 1020.4 - 30.6 - Cloudy 10 - - - -
21/08:30am 21.6 SE 11 16 1020.4 - 30.6 - Partly cloudy 10 - - - -
21/08:00am 21.4 SSE 11 17 1020.1 - 30.6 - Partly cloudy 10 - - - -
21/07:30am 20.4 SE 12 15 1019.8 - 30.6 - Partly cloudy 10 - - - -
21/07:00am 20.6 SE 10 14 1019.7 - 30.6 - Partly cloudy 10 - - - -
21/06:30am 20.3 SE 9 13 1019.4 - 30.6 - Partly cloudy 10 - - - -
21/06:00am 19.5 SE 9 13 1019.1 - 30.6 - Mostly clear 10 - - - -

Other Formats:

Comma delimited format used in spreadsheet applications
http://www.bom.gov.au/fwo/IDN60701/IDN60701.94596.axf

JavaScript Object Notation format (JSON) in row-major order
http://www.bom.gov.au/fwo/IDN60701/IDN60701.94596.json